Time;durP1;ratioP1;P1;durP2;ratioP2;P2;SDS_P1;SDS_P2;PMS_P1;PMS_P2;Temp;Humidity;BMP_temperature;BMP_pressure;BME280_temperature;BME280_humidity;BME280_pressure;Samples;Min_cycle;Max_cycle;Signal;HPM_P1;HPM_P2
2022/02/03 00:00:42;;;;;;;14.90;7.90;;;8.40;99.90;;;;;;5071224;28;20433;-56
2022/02/03 00:03:21;;;;;;;12.23;8.15;;;8.30;99.90;;;;;;5070385;28;20452;-56
2022/02/03 00:06:06;;;;;;;15.13;7.90;;;8.30;99.90;;;;;;5072292;28;20419;-56
2022/02/03 00:22:05;;;;;;;13.00;7.97;;;8.20;99.90;;;;;;5090956;28;20365;-56
2022/02/03 00:30:21;;;;;;;15.88;8.60;;;8.10;99.90;;;;;;5091544;28;20455;-56
2022/02/03 00:48:58;;;;;;;17.42;9.50;;;7.80;99.90;;;;;;5089609;28;20818;-56
2022/02/03 00:51:26;;;;;;;21.90;10.23;;;7.80;99.90;;;;;;5090708;28;20808;-56
2022/02/03 00:53:55;;;;;;;14.23;8.70;;;7.90;99.90;;;;;;5088784;28;20374;-56
2022/02/03 00:56:26;;;;;;;13.85;9.07;;;8.00;99.90;;;;;;5090208;28;20417;-56
2022/02/03 00:59:01;;;;;;;15.48;9.43;;;8.00;99.90;;;;;;5089632;28;21076;-57
2022/02/03 01:01:31;;;;;;;15.50;8.60;;;8.00;99.90;;;;;;5089500;28;20778;-56
2022/02/03 01:04:03;;;;;;;14.63;8.68;;;9.50;99.90;;;;;;5090093;28;20374;-56
2022/02/03 01:06:32;;;;;;;15.30;8.82;;;8.10;99.90;;;;;;5090794;28;20874;-56
2022/02/03 01:08:58;;;;;;;15.57;8.85;;;8.10;99.90;;;;;;5088776;28;20740;-56
2022/02/03 01:11:38;;;;;;;13.77;8.43;;;8.10;99.90;;;;;;5090522;28;20366;-56
2022/02/03 01:14:12;;;;;;;14.30;8.20;;;8.10;99.90;;;;;;5077041;28;20402;-56
2022/02/03 01:19:46;;;;;;;15.87;8.30;;;8.10;99.90;;;;;;5072779;28;20391;-56
2022/02/03 01:44:23;;;;;;;14.88;8.63;;;8.40;99.90;;;;;;5069404;28;20389;-56
2022/02/03 01:47:06;;;;;;;14.98;8.45;;;8.30;99.90;;;;;;5068943;28;20489;-56
2022/02/03 01:52:33;;;;;;;13.95;8.10;;;8.40;99.90;;;;;;5069647;28;20822;-56
2022/02/03 01:55:00;;;;;;;15.55;8.68;;;8.40;99.90;;;;;;5068937;28;20427;-56
2022/02/03 01:57:48;;;;;;;16.93;8.50;;;8.40;99.90;;;;;;5069395;28;20403;-56
2022/02/03 02:00:16;;;;;;;15.57;8.50;;;8.40;99.90;;;;;;5069325;28;20379;-56
2022/02/03 02:03:00;;;;;;;14.67;8.67;;;8.40;99.90;;;;;;5068861;28;20459;-56
2022/02/03 02:05:41;;;;;;;13.73;8.90;;;8.30;99.90;;;;;;5069141;28;20463;-56
2022/02/03 02:08:20;;;;;;;13.93;8.90;;;8.20;99.90;;;;;;5069298;28;20396;-56
2022/02/03 02:45:02;;;;;;;13.15;7.20;;;8.40;99.90;;;;;;5088808;28;20837;-56
2022/02/03 02:48:01;;;;;;;13.48;7.30;;;8.30;99.90;;;;;;5089450;28;20416;-55
2022/02/03 02:50:39;;;;;;;13.05;7.60;;;8.20;99.90;;;;;;5089158;28;20874;-55
2022/02/03 03:36:55;;;;;;;14.35;7.35;;;8.60;99.90;;;;;;5071439;28;20824;-55
2022/02/03 03:39:30;;;;;;;13.68;7.40;;;8.60;99.90;;;;;;5072162;28;20419;-55
2022/02/03 03:42:00;;;;;;;12.85;6.68;;;8.60;99.90;;;;;;5071504;28;20411;-55
2022/02/03 03:44:29;;;;;;;12.25;6.80;;;8.50;99.90;;;;;;5072137;28;20379;-56
2022/02/03 03:47:02;;;;;;;15.88;7.18;;;9.80;99.90;;;;;;5071551;28;20427;-55
2022/02/03 03:49:43;;;;;;;12.88;6.95;;;8.50;99.90;;;;;;5072169;28;20380;-56
2022/02/03 03:52:24;;;;;;;11.38;7.00;;;8.60;99.90;;;;;;5082429;28;20405;-55
2022/02/03 03:55:34;;;;;;;13.33;6.67;;;8.50;99.90;;;;;;5071137;28;20386;-55
2022/02/03 05:05:36;;;;;;;12.00;6.03;;;8.40;99.90;;;;;;5088508;28;21137;-56
2022/02/03 05:42:22;;;;;;;11.90;6.20;;;7.70;99.90;;;;;;5088812;28;20382;-56
2022/02/03 05:45:50;;;;;;;11.07;5.90;;;7.70;99.90;;;;;;5084196;28;20464;-56
2022/02/03 06:04:18;;;;;;;12.70;6.28;;;7.30;99.90;;;;;;5089272;28;20386;-56
2022/02/03 06:07:20;;;;;;;13.73;6.60;;;7.30;99.90;;;;;;5083817;28;20405;-56
2022/02/03 06:15:15;;;;;;;10.57;5.80;;;7.50;99.90;;;;;;5088424;28;20431;-55
2022/02/03 06:23:48;;;;;;;13.93;6.03;;;8.70;99.90;;;;;;5083340;28;20394;-56
2022/02/03 06:29:04;;;;;;;13.75;6.68;;;7.40;99.90;;;;;;5085795;28;20369;-56
2022/02/03 06:31:32;;;;;;;10.23;5.53;;;7.40;99.90;;;;;;5089220;28;20379;-55
2022/02/03 06:33:58;;;;;;;12.43;5.80;;;7.30;99.90;;;;;;5087662;28;20440;-55
2022/02/03 06:36:24;;;;;;;11.40;6.10;;;7.30;99.90;;;;;;5078220;28;20903;-55
2022/02/03 06:38:49;;;;;;;12.20;6.53;;;7.30;99.90;;;;;;5087613;28;20902;-55
2022/02/03 06:41:15;;;;;;;13.05;6.45;;;7.30;99.90;;;;;;5080111;28;20380;-55
2022/02/03 06:43:43;;;;;;;12.20;6.57;;;7.30;99.90;;;;;;5068813;28;20416;-56
2022/02/03 06:46:10;;;;;;;13.18;6.95;;;7.40;99.90;;;;;;5077636;28;20412;-55
2022/02/03 06:48:37;;;;;;;14.07;7.00;;;7.40;99.90;;;;;;5075249;28;20418;-55
2022/02/03 06:51:19;;;;;;;13.25;7.18;;;7.40;99.90;;;;;;5092575;28;21019;-56
2022/02/03 06:53:50;;;;;;;15.30;7.68;;;7.50;99.90;;;;;;5078764;28;20913;-56
2022/02/03 06:56:29;;;;;;;13.70;6.20;;;7.50;99.90;;;;;;5072869;28;20379;-55
2022/02/03 06:58:59;;;;;;;13.00;7.13;;;7.50;99.90;;;;;;5072195;28;20390;-56
2022/02/03 07:01:34;;;;;;;15.30;7.72;;;7.50;99.90;;;;;;5073067;28;20395;-56
2022/02/03 07:04:03;;;;;;;13.45;7.10;;;7.60;99.90;;;;;;5073866;28;20401;-56
2022/02/03 07:06:30;;;;;;;13.43;7.10;;;7.50;99.90;;;;;;5087121;28;20409;-55
2022/02/03 07:08:56;;;;;;;12.90;6.70;;;7.50;99.90;;;;;;5092103;28;20385;-56
2022/02/03 07:11:24;;;;;;;11.63;6.32;;;7.50;99.90;;;;;;5092776;28;20464;-56
2022/02/03 07:13:49;;;;;;;12.07;7.18;;;7.70;99.90;;;;;;5091793;28;20385;-56
2022/02/03 07:16:15;;;;;;;11.80;6.53;;;7.80;99.90;;;;;;5083048;28;20408;-56
2022/02/03 07:18:41;;;;;;;12.43;6.47;;;7.80;99.90;;;;;;5076124;28;21003;-56
2022/02/03 07:21:07;;;;;;;10.75;5.82;;;7.80;99.90;;;;;;5080570;28;20383;-56
2022/02/03 07:23:34;;;;;;;10.85;6.07;;;7.90;99.90;;;;;;5087966;28;20495;-56
2022/02/03 07:26:00;;;;;;;13.02;6.40;;;8.20;99.90;;;;;;5091350;28;20405;-56
2022/02/03 07:28:25;;;;;;;10.07;6.17;;;8.10;99.90;;;;;;5092423;28;20374;-56
2022/02/03 07:30:51;;;;;;;11.55;5.93;;;8.30;99.90;;;;;;5088754;28;20420;-55
2022/02/03 07:33:17;;;;;;;11.50;6.10;;;8.30;99.90;;;;;;5071979;28;20382;-56
2022/02/03 07:35:45;;;;;;;10.63;5.53;;;8.40;99.90;;;;;;5072279;28;20383;-56
2022/02/03 07:38:11;;;;;;;9.95;5.40;;;8.30;99.90;;;;;;5091722;28;20813;-56
2022/02/03 07:40:36;;;;;;;11.10;5.80;;;8.30;99.90;;;;;;5092051;28;20386;-56
2022/02/03 07:43:05;;;;;;;10.82;5.20;;;8.40;99.90;;;;;;5091450;28;20378;-56
2022/02/03 07:45:32;;;;;;;8.68;5.05;;;8.50;99.90;;;;;;5090738;28;20408;-55
2022/02/03 07:47:57;;;;;;;10.15;5.57;;;8.40;99.90;;;;;;5091183;28;20390;-56
2022/02/03 07:50:24;;;;;;;9.80;5.33;;;8.40;99.90;;;;;;5090818;28;20405;-56
2022/02/03 07:52:50;;;;;;;10.68;5.20;;;8.30;99.90;;;;;;5082239;28;20383;-56
2022/02/03 07:55:16;;;;;;;9.70;5.38;;;8.30;99.90;;;;;;5081139;28;20393;-56
2022/02/03 07:57:50;;;;;;;8.93;4.50;;;8.30;99.90;;;;;;5091460;28;20406;-56
2022/02/03 08:00:17;;;;;;;9.60;4.80;;;8.20;99.90;;;;;;5078217;28;20557;-56
2022/02/03 08:02:44;;;;;;;8.18;4.20;;;8.20;99.90;;;;;;5071499;28;20376;-56
2022/02/03 08:05:17;;;;;;;9.10;4.40;;;8.30;99.90;;;;;;5071325;28;20376;-56
2022/02/03 08:07:55;;;;;;;8.65;4.80;;;8.30;99.90;;;;;;5071094;28;20486;-56
2022/02/03 08:13:32;;;;;;;8.27;5.00;;;8.30;99.90;;;;;;5069206;28;20391;-56
2022/02/03 08:16:09;;;;;;;9.35;5.25;;;8.20;99.90;;;;;;5078333;28;20456;-56
2022/02/03 08:18:37;;;;;;;10.48;5.40;;;8.30;99.90;;;;;;5074972;28;20411;-56
2022/02/03 08:21:05;;;;;;;9.20;4.60;;;8.40;99.90;;;;;;5086735;28;20405;-56
2022/02/03 08:26:13;;;;;;;7.43;3.60;;;8.60;99.90;;;;;;5069990;28;20387;-56
2022/02/03 08:31:37;;;;;;;7.40;3.67;;;9.00;99.90;;;;;;5079808;28;20883;-56
2022/02/03 08:34:03;;;;;;;7.80;3.80;;;9.10;99.90;;;;;;5083366;28;20461;-56
2022/02/03 08:36:34;;;;;;;8.85;4.38;;;9.10;99.90;;;;;;5081534;28;20547;-56
2022/02/03 08:39:05;;;;;;;8.27;3.40;;;10.40;99.90;;;;;;5087093;28;20433;-58
2022/02/03 08:41:31;;;;;;;6.70;3.80;;;9.40;99.90;;;;;;5087232;28;20374;-56
2022/02/03 08:43:56;;;;;;;6.80;3.30;;;9.70;99.90;;;;;;5088649;28;20416;-56
2022/02/03 08:46:25;;;;;;;7.60;3.57;;;9.90;99.90;;;;;;5101562;28;20787;-56
2022/02/03 08:48:51;;;;;;;6.43;3.08;;;10.00;99.90;;;;;;5099980;28;20386;-56
2022/02/03 08:51:17;;;;;;;7.47;3.47;;;10.10;99.90;;;;;;5099507;28;20381;-56
2022/02/03 08:53:48;;;;;;;7.03;3.70;;;10.20;99.90;;;;;;5101672;28;20730;-56
2022/02/03 10:00:27;;;;;;;6.53;2.88;;;12.30;99.90;;;;;;5086771;28;20433;-56
2022/02/03 10:02:58;;;;;;;5.93;2.80;;;12.20;99.90;;;;;;5093855;28;20406;-56
2022/02/03 10:05:33;;;;;;;8.98;2.70;;;12.00;99.90;;;;;;5088023;28;20512;-56
2022/02/03 10:07:59;;;;;;;6.70;2.90;;;12.10;99.90;;;;;;5101242;28;20388;-56
2022/02/03 10:10:28;;;;;;;7.28;3.72;;;12.10;99.90;;;;;;5086895;28;20450;-56
2022/02/03 10:12:54;;;;;;;7.90;3.55;;;11.70;99.90;;;;;;5087049;28;20367;-56
2022/02/03 10:15:21;;;;;;;155.23;72.37;;;11.30;99.90;;;;;;5091412;28;20450;-56
2022/02/03 10:17:49;;;;;;;8.80;4.78;;;11.30;99.90;;;;;;5095546;28;20447;-58
2022/02/03 10:20:21;;;;;;;9.50;4.90;;;11.30;99.90;;;;;;5092380;28;20378;-57
2022/02/03 10:22:53;;;;;;;24.40;15.10;;;11.20;99.90;;;;;;5107439;28;20859;-57
2022/02/03 10:25:24;;;;;;;10.60;5.30;;;11.40;99.90;;;;;;5086398;28;20382;-57
2022/02/03 10:27:58;;;;;;;17.52;10.80;;;11.80;99.90;;;;;;5103876;28;20415;-57
2022/02/03 10:30:27;;;;;;;7.47;3.60;;;12.30;99.90;;;;;;5099590;28;20414;-56
2022/02/03 10:32:54;;;;;;;6.60;3.00;;;12.60;99.90;;;;;;5098722;28;20472;-56
2022/02/03 10:35:32;;;;;;;6.13;2.85;;;12.70;99.90;;;;;;5099243;28;20883;-56
2022/02/03 10:54:22;;;;;;;6.90;3.75;;;12.90;99.90;;;;;;5101004;28;20374;-56
2022/02/03 11:05:18;;;;;;;6.78;2.60;;;12.70;99.90;;;;;;5112178;28;20370;-57
2022/02/03 11:07:53;;;;;;;6.63;3.20;;;12.40;99.90;;;;;;5112878;28;20404;-56
2022/02/03 11:12:52;;;;;;;5.03;2.30;;;12.20;99.90;;;;;;5112357;28;20539;-56
2022/02/03 11:15:19;;;;;;;6.72;2.20;;;12.40;99.90;;;;;;5072386;28;20395;-56
2022/02/03 11:17:49;;;;;;;7.35;2.97;;;12.40;99.90;;;;;;5071909;28;20412;-56
2022/02/03 11:20:18;;;;;;;6.17;3.10;;;12.30;99.90;;;;;;5072326;28;20403;-56
2022/02/03 11:22:54;;;;;;;8.55;4.43;;;12.10;99.90;;;;;;5072013;28;20436;-56
2022/02/03 12:04:07;;;;;;;6.28;2.05;;;11.50;99.90;;;;;;5071654;28;20445;-56
2022/02/03 12:12:47;;;;;;;4.88;1.70;;;11.70;99.90;;;;;;5070715;28;20386;-56
2022/02/03 12:20:18;;;;;;;5.25;1.63;;;12.00;99.90;;;;;;5090934;28;20382;-56
2022/02/03 12:25:31;;;;;;;6.00;1.60;;;12.00;99.90;;;;;;5090789;28;20370;-56
2022/02/03 12:44:29;;;;;;;5.47;2.00;;;11.60;99.90;;;;;;5080883;28;20398;-57
2022/02/03 12:47:02;;;;;;;5.70;1.90;;;11.70;99.90;;;;;;5090042;28;20390;-57
2022/02/03 12:49:30;;;;;;;4.90;1.60;;;11.80;99.90;;;;;;5090734;28;20682;-58
2022/02/03 12:51:56;;;;;;;5.68;2.00;;;11.90;99.90;;;;;;5090406;28;20378;-57
2022/02/03 12:54:22;;;;;;;5.05;1.80;;;12.00;99.90;;;;;;5091191;28;20406;-56
2022/02/03 12:56:48;;;;;;;5.20;2.00;;;12.00;99.90;;;;;;5090799;28;20449;-56
2022/02/03 12:59:17;;;;;;;6.10;2.00;;;12.00;99.90;;;;;;5090145;28;20386;-56
2022/02/03 13:01:45;;;;;;;5.37;1.90;;;11.90;99.90;;;;;;5090978;28;20835;-56
2022/02/03 13:04:17;;;;;;;6.10;2.10;;;12.10;99.90;;;;;;5089546;28;21000;-56
2022/02/03 13:07:00;;;;;;;5.68;1.90;;;12.00;99.90;;;;;;5090604;28;20374;-58
2022/02/03 13:09:32;;;;;;;6.05;2.40;;;11.70;99.90;;;;;;5090379;28;20382;-57
2022/02/03 13:12:13;;;;;;;5.70;2.10;;;12.00;99.90;;;;;;5089803;28;20381;-56
2022/02/03 13:14:49;;;;;;;5.90;2.20;;;11.90;99.90;;;;;;5090319;28;20378;-56
2022/02/03 13:17:21;;;;;;;6.93;2.13;;;11.70;99.90;;;;;;5088850;28;20787;-56
2022/02/03 13:19:57;;;;;;;7.35;2.17;;;11.80;99.90;;;;;;5090175;28;20855;-56
2022/02/03 13:30:36;;;;;;;6.30;2.20;;;11.70;99.90;;;;;;5090099;28;20477;-56
2022/02/03 13:33:04;;;;;;;6.72;2.30;;;12.00;99.90;;;;;;5089740;28;20439;-56
2022/02/03 13:35:44;;;;;;;6.32;2.70;;;12.00;99.90;;;;;;5090027;28;20417;-56
2022/02/03 13:38:33;;;;;;;6.03;2.30;;;12.20;99.90;;;;;;5089141;28;21079;-56
2022/02/03 13:41:16;;;;;;;6.13;2.10;;;12.20;99.90;;;;;;5089165;28;20380;-56
2022/02/03 13:43:44;;;;;;;6.35;2.30;;;12.00;99.90;;;;;;5089734;28;20869;-56
2022/02/03 13:46:12;;;;;;;6.13;2.30;;;12.00;99.90;;;;;;5088965;28;21065;-56
2022/02/03 13:48:39;;;;;;;6.53;2.28;;;12.00;99.90;;;;;;5089903;28;20439;-56
2022/02/03 13:51:09;;;;;;;6.55;2.80;;;12.10;99.90;;;;;;5089063;28;20389;-57
2022/02/03 13:53:42;;;;;;;5.80;1.90;;;12.10;99.90;;;;;;5089870;28;20381;-56
2022/02/03 14:21:07;;;;;;;5.97;2.22;;;12.20;99.90;;;;;;5084900;28;20450;-56
2022/02/03 14:29:08;;;;;;;7.18;2.53;;;11.60;99.90;;;;;;5088260;28;20488;-56
2022/02/03 14:31:35;;;;;;;5.75;2.20;;;11.60;99.90;;;;;;5089307;28;20386;-57
2022/02/03 14:34:06;;;;;;;6.40;2.37;;;11.50;99.90;;;;;;5087307;28;20374;-56
2022/02/03 14:36:33;;;;;;;5.72;2.15;;;11.50;99.90;;;;;;5089181;28;20393;-57
2022/02/03 14:39:17;;;;;;;7.07;2.20;;;11.50;99.90;;;;;;5088388;28;20386;-57
2022/02/03 14:41:46;;;;;;;6.20;2.40;;;11.40;99.90;;;;;;5089312;28;20378;-56
2022/02/03 14:44:15;;;;;;;5.47;2.43;;;11.20;99.90;;;;;;5088346;28;21074;-56
2022/02/03 14:46:44;;;;;;;6.70;2.80;;;11.20;99.90;;;;;;5089220;28;20390;-56
2022/02/03 14:49:10;;;;;;;7.70;3.10;;;11.10;99.90;;;;;;5088303;28;20446;-56
2022/02/03 14:59:34;;;;;;;5.90;2.57;;;10.80;99.90;;;;;;5088959;28;20381;-56
2022/02/03 15:02:06;;;;;;;5.70;2.70;;;10.80;99.90;;;;;;5088533;28;20863;-56
2022/02/03 15:04:32;;;;;;;5.83;3.00;;;10.80;99.90;;;;;;5088767;28;20433;-56
2022/02/03 15:07:02;;;;;;;6.25;2.78;;;10.90;99.90;;;;;;5088064;28;20374;-56
2022/02/03 15:09:50;;;;;;;6.63;2.60;;;11.00;99.90;;;;;;5091644;28;20437;-56
2022/02/03 15:12:40;;;;;;;6.80;2.65;;;11.10;99.90;;;;;;5090638;28;20393;-56
2022/02/03 15:15:08;;;;;;;10.35;3.17;;;11.10;99.90;;;;;;5091629;28;20477;-56
2022/02/03 15:17:35;;;;;;;10.27;3.10;;;11.10;99.90;;;;;;5092463;28;20856;-56
2022/02/03 15:20:05;;;;;;;6.57;2.90;;;11.10;99.90;;;;;;5091939;28;20937;-56
2022/02/03 15:22:31;;;;;;;6.15;2.85;;;11.10;99.90;;;;;;5092537;28;20382;-56
2022/02/03 15:24:58;;;;;;;6.53;2.80;;;11.10;99.90;;;;;;5091724;28;20383;-56
2022/02/03 15:27:25;;;;;;;7.22;2.85;;;11.00;99.90;;;;;;5092381;28;20389;-56
2022/02/03 15:29:51;;;;;;;6.57;2.33;;;11.00;99.90;;;;;;5092736;28;20781;-56
2022/02/03 15:32:18;;;;;;;6.90;2.38;;;10.80;99.90;;;;;;5091741;28;20411;-56
2022/02/03 15:34:44;;;;;;;8.07;2.60;;;10.60;99.90;;;;;;5092597;28;20881;-56
2022/02/03 15:37:15;;;;;;;5.95;2.67;;;10.50;99.90;;;;;;5091430;28;20394;-56
2022/02/03 15:39:48;;;;;;;5.97;2.70;;;10.50;99.90;;;;;;5092410;28;20424;-56
2022/02/03 15:42:18;;;;;;;13.80;3.10;;;10.30;99.90;;;;;;5091460;28;20620;-56
2022/02/03 15:44:47;;;;;;;6.88;2.45;;;10.30;99.90;;;;;;5092529;28;20424;-56
2022/02/03 15:47:36;;;;;;;7.27;2.97;;;10.20;99.90;;;;;;5091190;28;20484;-56
2022/02/03 16:17:04;;;;;;;12.83;6.60;;;9.60;99.90;;;;;;5088192;28;20455;-56
2022/02/03 16:19:41;;;;;;;10.45;5.30;;;9.50;99.90;;;;;;5091227;28;20451;-56
2022/02/03 16:22:20;;;;;;;12.07;5.18;;;9.50;99.90;;;;;;5090090;28;20806;-57
2022/02/03 16:24:49;;;;;;;7.40;3.90;;;9.40;99.90;;;;;;5084437;28;20443;-57
2022/02/03 16:54:26;;;;;;;8.65;3.50;;;8.90;99.90;;;;;;5085934;28;20441;-57
2022/02/03 16:56:57;;;;;;;8.77;3.80;;;9.00;99.90;;;;;;5074956;28;20892;-57
2022/02/03 16:59:24;;;;;;;6.47;3.90;;;9.10;99.90;;;;;;5075328;28;20403;-57
2022/02/03 17:01:49;;;;;;;8.03;4.10;;;9.00;99.90;;;;;;5080911;28;20460;-57
2022/02/03 17:04:18;;;;;;;10.02;4.20;;;9.10;99.90;;;;;;5074336;28;20374;-57
2022/02/03 17:06:47;;;;;;;8.45;4.72;;;9.10;99.90;;;;;;5069491;28;20901;-57
2022/02/03 17:09:14;;;;;;;10.07;5.60;;;9.00;99.90;;;;;;5076737;28;20400;-57
2022/02/03 17:11:39;;;;;;;9.40;5.70;;;8.90;99.90;;;;;;5081590;28;20922;-57
2022/02/03 17:14:06;;;;;;;8.63;5.33;;;8.90;99.90;;;;;;5090022;28;20460;-57
2022/02/03 17:16:32;;;;;;;9.90;5.93;;;8.90;99.90;;;;;;5080616;28;20398;-57
2022/02/03 17:18:57;;;;;;;12.23;6.38;;;8.90;99.90;;;;;;5083114;28;20409;-57
2022/02/03 17:21:27;;;;;;;9.48;5.97;;;8.90;99.90;;;;;;5089371;28;20386;-57
2022/02/03 17:23:52;;;;;;;10.85;6.45;;;8.90;99.90;;;;;;5074857;28;20402;-57
2022/02/03 17:26:26;;;;;;;10.37;6.27;;;8.90;99.90;;;;;;5087360;28;20427;-56
2022/02/03 17:29:00;;;;;;;11.45;5.90;;;8.90;99.90;;;;;;5081020;28;20949;-56
2022/02/03 17:31:53;;;;;;;10.80;6.30;;;8.90;99.90;;;;;;5089025;28;20382;-56
2022/02/03 18:09:54;;;;;;;15.50;9.20;;;8.60;99.90;;;;;;5080085;28;20798;-56
2022/02/03 18:30:56;;;;;;;11.15;6.70;;;8.30;99.90;;;;;;5081687;28;20413;-56
2022/02/03 18:48:45;;;;;;;12.15;7.32;;;8.40;99.90;;;;;;5056525;28;20382;-56
2022/02/03 18:50:45;;;;;;;10.63;6.20;;;8.40;99.90;;;;;;5088421;28;20472;-56
2022/02/03 18:53:29;;;;;;;10.33;6.17;;;8.40;99.90;;;;;;5087275;28;20865;-56
2022/02/03 18:56:13;;;;;;;11.10;6.13;;;8.40;99.90;;;;;;5088871;28;20748;-57
2022/02/03 20:10:20;;;;;;;15.18;9.23;;;8.30;99.90;;;;;;5084042;28;21136;-57
2022/02/03 20:12:46;;;;;;;16.17;9.40;;;8.40;99.90;;;;;;5079706;28;20502;-56
2022/02/03 20:15:12;;;;;;;13.55;9.20;;;8.30;99.90;;;;;;5085925;28;20460;-56
2022/02/03 20:17:38;;;;;;;16.35;9.80;;;8.30;99.90;;;;;;5085341;28;20427;-56
2022/02/03 20:20:04;;;;;;;14.13;8.60;;;8.20;99.90;;;;;;5089719;28;20430;-57
2022/02/03 20:22:34;;;;;;;14.50;8.45;;;8.20;99.90;;;;;;5090648;28;20462;-56
2022/02/03 20:25:02;;;;;;;13.85;8.50;;;8.20;99.90;;;;;;5090372;28;20487;-57
2022/02/03 20:27:27;;;;;;;14.60;8.50;;;8.20;99.90;;;;;;5089906;28;20409;-57
2022/02/03 20:29:54;;;;;;;14.52;8.10;;;8.20;99.90;;;;;;5090648;28;20847;-56
2022/02/03 20:32:20;;;;;;;13.23;8.10;;;8.30;99.90;;;;;;5089297;28;20386;-56
2022/02/03 20:34:46;;;;;;;14.30;8.60;;;8.20;99.90;;;;;;5090320;28;20444;-56
2022/02/03 20:37:13;;;;;;;13.60;8.57;;;8.30;99.90;;;;;;5088756;28;20414;-56
2022/02/03 20:39:39;;;;;;;13.80;8.90;;;8.30;99.90;;;;;;5087990;28;20402;-56
2022/02/03 20:42:05;;;;;;;13.70;8.00;;;8.40;99.90;;;;;;5089410;28;20366;-56
2022/02/03 20:44:30;;;;;;;14.45;8.10;;;8.40;99.90;;;;;;5084659;28;20394;-56
2022/02/03 20:46:56;;;;;;;12.55;7.45;;;8.40;99.90;;;;;;5087960;28;20421;-56
2022/02/03 20:49:22;;;;;;;13.70;8.10;;;8.40;99.90;;;;;;5089025;28;20906;-57
2022/02/03 20:51:48;;;;;;;12.90;7.63;;;8.40;99.90;;;;;;5090294;28;20735;-56
2022/02/03 20:54:13;;;;;;;12.77;7.68;;;8.40;99.90;;;;;;5084715;28;20391;-57
2022/02/03 20:56:39;;;;;;;12.80;7.80;;;8.40;99.90;;;;;;5087143;28;20404;-56
2022/02/03 20:59:08;;;;;;;14.88;8.18;;;8.30;99.90;;;;;;5088700;28;20398;-56
2022/02/03 21:01:36;;;;;;;14.23;8.70;;;8.40;99.90;;;;;;5077919;28;20886;-56
2022/02/03 21:04:09;;;;;;;17.63;9.52;;;8.20;99.90;;;;;;5084266;28;20406;-57
2022/02/03 21:06:34;;;;;;;16.77;10.00;;;8.10;99.90;;;;;;5085953;28;20378;-56
2022/02/03 21:09:00;;;;;;;15.30;9.60;;;8.10;99.90;;;;;;5078428;28;20391;-57
2022/02/03 21:11:26;;;;;;;16.50;10.13;;;8.10;99.90;;;;;;5081348;28;20492;-57
2022/02/03 21:13:54;;;;;;;18.27;10.85;;;8.10;99.90;;;;;;5080078;28;20402;-56
2022/02/03 21:16:20;;;;;;;17.50;11.15;;;8.00;99.90;;;;;;5088943;28;20386;-57
2022/02/03 21:18:46;;;;;;;17.73;11.27;;;8.10;99.90;;;;;;5089842;28;20471;-58
2022/02/03 21:21:12;;;;;;;18.33;11.13;;;8.10;99.90;;;;;;5089297;28;20378;-57
2022/02/03 21:23:39;;;;;;;19.30;11.90;;;8.10;99.90;;;;;;5086594;28;20404;-57
2022/02/03 21:26:17;;;;;;;18.40;12.40;;;8.10;99.90;;;;;;5091332;28;20485;-57
2022/02/03 21:28:47;;;;;;;19.52;11.43;;;8.20;99.90;;;;;;5088762;28;20439;-57
2022/02/03 21:31:13;;;;;;;18.30;11.68;;;8.20;99.90;;;;;;5089661;28;20475;-57
2022/02/03 21:33:47;;;;;;;17.25;11.40;;;8.30;99.90;;;;;;5087285;28;20411;-57
2022/02/03 21:36:13;;;;;;;17.52;11.32;;;8.40;99.90;;;;;;5081904;28;20403;-57
2022/02/03 21:38:41;;;;;;;20.02;11.95;;;8.40;99.90;;;;;;5085788;28;20455;-57
2022/02/03 21:41:09;;;;;;;16.10;9.95;;;8.40;99.90;;;;;;5087773;28;20458;-57
2022/02/03 21:43:35;;;;;;;16.90;9.93;;;8.30;99.90;;;;;;5086040;28;20767;-57
2022/02/03 21:46:01;;;;;;;15.20;9.40;;;8.20;99.90;;;;;;5089269;28;20436;-57
2022/02/03 21:48:27;;;;;;;15.63;9.63;;;8.20;99.90;;;;;;5086941;28;20406;-57
2022/02/03 21:50:59;;;;;;;16.80;9.60;;;8.20;99.90;;;;;;5081877;28;20435;-56
2022/02/03 21:53:30;;;;;;;15.88;10.07;;;8.30;99.90;;;;;;5086418;28;20389;-57
2022/02/03 21:55:56;;;;;;;15.68;9.52;;;8.30;99.90;;;;;;5089664;28;20374;-56
2022/02/03 21:58:25;;;;;;;15.55;9.50;;;8.30;99.90;;;;;;5087628;28;20422;-57
2022/02/03 22:00:55;;;;;;;15.50;10.02;;;8.30;99.90;;;;;;5089614;28;20890;-57
2022/02/03 22:03:24;;;;;;;17.33;10.23;;;8.30;99.90;;;;;;5088717;28;20383;-56
2022/02/03 22:05:50;;;;;;;16.63;9.35;;;8.30;99.90;;;;;;5089284;28;20387;-57
2022/02/03 22:08:15;;;;;;;15.10;9.30;;;8.20;99.90;;;;;;5087936;28;20378;-57
2022/02/03 22:10:41;;;;;;;16.05;9.60;;;8.10;99.90;;;;;;5088057;28;20666;-57
2022/02/03 22:13:06;;;;;;;15.53;9.00;;;8.00;99.90;;;;;;5087246;28;20410;-57
2022/02/03 22:15:32;;;;;;;14.50;8.77;;;7.90;99.90;;;;;;5077444;28;20425;-57
2022/02/03 22:17:58;;;;;;;15.40;8.77;;;7.90;99.90;;;;;;5088632;28;20508;-57
2022/02/03 22:20:36;;;;;;;14.95;9.38;;;7.80;99.90;;;;;;5087314;28;20453;-57
2022/02/03 22:40:00;;;;;;;18.60;10.60;;;7.70;99.90;;;;;;5091670;28;20439;-54
2022/02/03 22:44:56;;;;;;;18.00;10.10;;;7.70;99.90;;;;;;5092605;28;20464;-54
2022/02/03 22:47:20;;;;;;;16.92;9.70;;;7.70;99.90;;;;;;5082542;28;20916;-54
2022/02/03 22:49:45;;;;;;;15.52;9.50;;;7.70;99.90;;;;;;5085773;28;20390;-55
2022/02/03 22:52:13;;;;;;;14.30;8.73;;;7.70;99.90;;;;;;5082144;28;20453;-54
2022/02/03 22:54:39;;;;;;;16.17;9.23;;;7.80;99.90;;;;;;5083192;28;20397;-54
2022/02/03 22:57:05;;;;;;;16.10;9.50;;;7.80;99.90;;;;;;5080018;28;20409;-55
2022/02/03 23:02:09;;;;;;;19.13;8.65;;;7.80;99.90;;;;;;5087838;28;20386;-56
2022/02/03 23:04:35;;;;;;;15.87;9.07;;;7.90;99.90;;;;;;5087058;28;20431;-56
2022/02/03 23:07:14;;;;;;;14.10;8.50;;;7.90;99.90;;;;;;5086580;28;20444;-56
2022/02/03 23:12:15;;;;;;;14.48;8.10;;;7.80;99.90;;;;;;5088562;28;20386;-56
2022/02/03 23:17:41;;;;;;;12.80;7.90;;;7.70;99.90;;;;;;5087267;28;20518;-56
2022/02/03 23:20:16;;;;;;;13.45;8.27;;;9.10;99.90;;;;;;5113996;27;20398;-56
2022/02/03 23:22:43;;;;;;;12.73;7.75;;;7.80;99.90;;;;;;5080510;28;20870;-56
2022/02/03 23:25:16;;;;;;;12.90;8.00;;;7.80;99.90;;;;;;5075686;28;20486;-56
2022/02/03 23:30:21;;;;;;;13.55;7.90;;;7.90;99.90;;;;;;5089787;28;20466;-56
2022/02/03 23:32:48;;;;;;;13.50;8.57;;;7.90;99.90;;;;;;5088396;28;20882;-56
2022/02/03 23:35:21;;;;;;;13.40;8.40;;;7.90;99.90;;;;;;5092764;28;20389;-56
2022/02/03 23:37:53;;;;;;;14.05;8.13;;;7.80;99.90;;;;;;5094857;28;20519;-56
2022/02/03 23:41:02;;;;;;;14.82;8.70;;;7.80;99.90;;;;;;5091861;28;20395;-56
